Data for 08/01/2008

Time Sea-Level Adjusted Pressure Absolute Pressure Temperature Relative Humidity Dew Point   
(mb) (inHg) (mb) (inHg) (C) (F) (%) (C) (F)
00:05 1015 29.97 844 24.92 19.9 67.8 26 0 32.1
00:10 1015 29.97 844 24.92 19.6 67.4 27 0.4 32.6
00:15 1015 29.97 844 24.92 19.3 66.7 27 0 32
00:20 1015 29.97 844 24.92 19.5 67.2 26 -0.5 31.2
00:25 1015 29.97 844 24.92 19.7 67.5 26 -0.2 31.6
00:30 1015 29.97 844 24.92 19.6 67.3 27 0 32.1
00:35 1015 29.97 844 24.92 19.7 67.4 26 -0.3 31.5
00:40 1015 29.97 844 24.92 19.8 67.6 26 -0.4 31.3
00:45 1015 29.97 844 24.92 19.8 67.7 25 -0.4 31.2
00:50 1015 29.97 844 24.92 19.9 67.7 25 -0.6 30.9
00:55 1015 29.97 844 24.92 20 68 25 -0.2 31.6
01:00 1015 29.97 844 24.92 19.8 67.6 26 -0.2 31.7
01:05 1015 29.97 844 24.92 19.7 67.5 25 -0.4 31.2
01:10 1015 29.97 844 24.92 19.8 67.7 25 -0.4 31.3
01:15 1015 29.97 844 24.92 19.7 67.5 25 -0.6 30.9
01:20 1015 29.97 844 24.92 19.7 67.5 26 -0.1 31.9
01:25 1015 29.97 844 24.92 19.4 66.9 26 -0.5 31.1
01:30 1015 29.97 844 24.92 19.5 67.1 26 -0.3 31.4
01:35 1015 29.97 844 24.92 19.4 67 26 -0.4 31.3
01:40 1015 29.97 844 24.92 19.2 66.6 26 -0.5 31
01:45 1015 29.97 844 24.92 19.4 66.8 26 -0.6 30.9
01:50 1015 29.97 844 24.92 19.4 66.9 27 -0 32
01:55 1015 29.97 844 24.92 19.1 66.4 27 -0.2 31.7
02:00 1015 29.97 844 24.92 19.1 66.4 27 -0.4 31.3
02:05 1015 29.97 844 24.92 19.1 66.3 27 -0.3 31.5
02:10 1015 29.97 844 24.92 19.2 66.5 27 -0.1 31.8
02:15 1015 29.97 844 24.92 19 66.2 27 -0.3 31.5
02:20 1015 29.97 844 24.92 19.1 66.3 28 0.1 32.2
02:25 1015 29.97 844 24.92 19.2 66.5 27 -0 32
02:30 1015 29.97 844 24.92 19.3 66.7 27 -0 32
02:35 1015 29.97 844 24.92 19.1 66.3 27 -0.2 31.6
02:40 1015 29.97 844 24.92 18.9 66 30 1.1 34
02:45 1015 29.97 844 24.92 18.5 65.2 29 0.5 32.8
02:50 1015 29.97 844 24.92 18 64.3 31 0.7 33.2
02:55 1015 29.97 844 24.92 18.1 64.6 29 -0 31.9
03:00 1015 29.97 844 24.92 18.3 64.9 30 0.5 32.9
03:05 1015 29.97 844 24.92 18.1 64.6 30 0.4 32.7
03:10 1015 29.97 844 24.92 17.9 64.3 30 0.2 32.3
03:15 1015 29.97 844 24.92 17.9 64.3 31 0.5 33
03:20 1015 29.97 844 24.92 17.8 64 31 0.4 32.7
03:25 1015 29.97 844 24.92 17.7 63.8 35 2.2 35.9
03:30 1015 29.97 844 24.92 17.4 63.4 34 1.7 35.1
03:35 1015 29.97 844 24.92 17.2 62.9 31 0.2 32.3
03:40 1015 29.97 844 24.92 17.7 63.8 31 0.3 32.5
03:45 1015 29.97 844 24.92 17.9 64.2 31 0.6 33
03:50 1015 29.97 844 24.92 17.8 64.1 31 0.6 33.1
03:55 1015 29.97 844 24.92 17.6 63.6 33 1.3 34.3
04:00 1015 29.97 844 24.92 17.5 63.4 33 1.3 34.3
04:05 1015 29.97 844 24.92 17.5 63.4 31 0.5 32.9
04:10 1015 29.97 844 24.92 17.5 63.5 32 1 33.8
04:15 1015 29.97 844 24.92 17.3 63.1 33 1 33.7
04:20 1015 29.97 844 24.92 17.1 62.7 34 1.2 34.1
04:25 1015 29.97 844 24.92 16.6 61.9 35 1.1 34
04:30 1015 29.97 844 24.92 16.9 62.3 33 0.7 33.3
04:35 1015 29.97 844 24.92 17 62.6 32 0.4 32.7
04:40 1015 29.97 844 24.92 17 62.7 32 0.2 32.4
04:45 1015 29.97 844 24.92 17.1 62.7 32 0.3 32.5
04:50 1015 29.97 844 24.92 17 62.5 33 0.7 33.2
04:55 1015 29.97 844 24.92 16.6 61.8 33 0.5 32.8
05:00 1015 29.97 844 24.92 16.7 62 34 0.7 33.3
05:05 1015 29.97 844 24.92 16.6 61.8 35 1 33.9
05:10 1015 29.97 844 24.92 16.3 61.3 34 0.7 33.2
05:15 1015 29.97 844 24.92 16.1 61.1 36 1.2 34.1
05:20 1015 29.97 844 24.92 15.8 60.4 37 1.3 34.4
05:25 1015 29.97 844 24.92 15.4 59.7 37 1 33.8
05:30 1015 29.97 844 24.92 15.5 59.8 36 0.7 33.3
05:35 1015 29.97 844 24.92 15.8 60.4 34 0.2 32.4
05:40 1015 29.97 844 24.92 16.1 60.9 34 0.1 32.2
05:45 1015 29.97 844 24.92 16 60.8 35 0.6 33.1
05:50 1015 29.97 844 24.92 16.2 61.2 33 0.2 32.4
05:55 1015 29.97 844 24.92 16.2 61.2 36 1.1 33.9
06:00 1015 29.97 844 24.92 15.9 60.7 37 1.2 34.2
06:05 1015 29.97 844 24.92 15.7 60.3 37 1.2 34.2
06:10 1015 29.97 844 24.92 15.6 60 38 1.4 34.6
06:15 1015 29.97 844 24.92 15.1 59.2 40 1.5 34.8
06:20 1015 29.97 844 24.92 14.9 58.8 40 1.4 34.6
06:25 1015 29.97 844 24.92 14.9 58.9 38 1 33.7
06:30 1015 29.97 844 24.92 15.2 59.3 37 0.8 33.5
06:35 1015 29.97 844 24.92 15.4 59.7 37 0.9 33.5
06:40 1015 29.97 844 24.92 15.6 60 36 0.7 33.2
06:45 1015 29.97 844 24.92 15.9 60.6 35 0.4 32.8
06:50 1015 29.97 844 24.92 16.1 60.9 35 0.7 33.2
06:55 1015 29.97 844 24.92 16.3 61.3 34 0.3 32.6
07:00 1015 29.97 844 24.92 16.7 62 33 0.4 32.7
07:05 1015 29.97 844 24.92 17 62.5 32 0.5 32.8
07:10 1015 29.97 844 24.92 17.1 62.8 33 0.8 33.4
07:15 1015 29.97 844 24.92 17.3 63.1 33 1 33.8
07:20 1015 29.97 844 24.92 17.3 63.1 34 1.2 34.2
07:25 1015 29.97 845 24.95 17.2 62.9 34 1.2 34.1
07:30 1015 29.97 845 24.95 17.4 63.3 33 1.1 34
07:35 1015 29.97 845 24.95 17.6 63.6 33 1.3 34.4
07:40 1015 29.97 844 24.92 17.4 63.3 35 2 35.5
07:45 1015 29.97 844 24.92 17.3 63.2 38 3 37.3
07:50 1015 29.97 844 24.92 17.5 63.4 36 2.5 36.5
07:55 1015 29.97 844 24.92 17.7 63.9 37 2.9 37.3
08:00 1015 29.97 844 24.92 18.2 64.7 39 4 39.2
08:05 1015 29.97 845 24.95 18.4 65.1 35 2.9 37.2
08:10 1015 29.97 845 24.95 18.7 65.7 32 2 35.6
08:15 1015 29.97 845 24.95 19.2 66.5 33 2.5 36.5
08:20 1015 29.97 845 24.95 19.7 67.5 33 3 37.4
08:25 1015 29.97 845 24.95 20 68.1 31 2.8 37
08:30 1015 29.97 845 24.95 20.2 68.3 33 3.7 38.6
08:35 1015 29.97 845 24.95 20.5 69 33 3.9 39
08:40 1015 29.97 845 24.95 20.6 69 32 3.3 37.9
08:45 1015 29.97 845 24.95 21 69.7 31 3.6 38.4
08:50 1015 29.97 845 24.95 21.6 70.9 31 3.8 38.8
08:55 1015 29.97 845 24.95 22 71.6 30 3.8 38.8
09:00 1015 29.97 845 24.95 22.6 72.8 30 4.2 39.6
09:05 1015 29.97 845 24.95 23.2 73.7 31 5.4 41.8
09:10 1015 29.97 844 24.92 23.1 73.6 30 5 40.9
09:15 1015 29.97 845 24.95 23.2 73.8 29 4.6 40.3
09:20 1015 29.97 844 24.92 23.3 74 30 4.8 40.6
09:25 1015 29.97 844 24.92 23.8 74.8 31 5.7 42.2
09:30 1015 29.97 844 24.92 23.8 74.8 30 5.5 42
09:35 1015 29.97 844 24.92 23.9 75 28 4.7 40.5
09:40 1015 29.97 844 24.92 24.2 75.5 28 5 41
09:45 1015 29.97 844 24.92 24.5 76.1 28 5 40.9
09:50 1015 29.97 844 24.92 24.6 76.2 28 5.1 41.3
09:55 1015 29.97 844 24.92 24.9 76.7 27 4.8 40.6
10:00 1015 29.97 844 24.92 25.8 78.4 27 5.4 41.8
10:05 1015 29.97 844 24.92 25.4 77.8 26 4.7 40.5
10:10 1015 29.97 844 24.92 24.6 76.3 28 5 41
10:15 1015 29.97 844 24.92 25 77 26 4.4 40
10:20 1015 29.97 844 24.92 25.2 77.3 26 4.7 40.4
10:25 1015 29.97 844 24.92 24.8 76.7 26 4.3 39.8
10:30 1015 29.97 844 24.92 24.7 76.4 28 5.1 41.2
10:35 1015 29.97 844 24.92 25.2 77.3 28 5.8 42.4
10:40 1015 29.97 844 24.92 26 78.7 26 5.1 41.2
10:45 1015 29.97 844 24.92 25.7 78.3 29 6.5 43.7
10:50 1015 29.97 844 24.92 25.6 78.2 27 5.4 41.7
10:55 1015 29.97 844 24.92 26.4 79.6 24 4.4 39.9
11:00 1015 29.97 844 24.92 26.2 79.2 25 5 41.1
11:05 1015 29.97 844 24.92 25.7 78.3 25 4.4 40
11:10 1015 29.97 844 24.92 25.6 78.2 23 3.1 37.6
11:15 1015 29.97 844 24.92 25.6 78.1 27 5.6 42.1
11:20 1015 29.97 844 24.92 25.6 78 26 5.1 41.1
11:25 1015 29.97 844 24.92 26.3 79.4 23 4.1 39.3
11:30 1015 29.97 844 24.92 25.9 78.7 26 5.1 41.3
11:35 1015 29.97 844 24.92 27.2 80.9 23 4.8 40.6
11:40 1015 29.97 844 24.92 27.5 81.4 23 4.9 40.7
11:45 1015 29.97 844 24.92 27.7 81.8 19 2.6 36.7
11:50 1015 29.97 844 24.92 28 82.3 19 2.1 35.8
11:55 1015 29.97 844 24.92 27.7 81.9 21 3.9 39.1
12:00 1015 29.97 844 24.92 28.2 82.8 21 4.2 39.6
12:05 1015 29.97 844 24.92 28.7 83.6 22 5.2 41.3
12:10 1015 29.97 844 24.92 28.5 83.2 22 4.8 40.6
12:15 1015 29.97 844 24.92 28.7 83.6 23 5.7 42.2
12:20 1015 29.97 844 24.92 28.7 83.7 22 5.5 42
12:25 1015 29.97 844 24.92 28.8 83.9 23 6.1 42.9
12:30 1015 29.97 844 24.92 29.4 84.9 23 6.3 43.3
12:35 1015 29.97 844 24.92 29.2 84.5 23 6.3 43.3
12:40 1015 29.97 844 24.92 28.7 83.7 23 5.9 42.6
12:45 1015 29.97 844 24.92 29 84.1 22 5.6 42.1
12:50 1014 29.94 844 24.92 29.4 84.9 24 6.8 44.3
12:55 1014 29.94 844 24.92 29.9 85.8 23 6.8 44.2
13:00 1014 29.94 844 24.92 29.9 85.8 23 6.7 44.1
13:05 1014 29.94 844 24.92 30.6 87 21 6.1 43
13:10 1014 29.94 844 24.92 30.6 87 19 4.3 39.8
13:15 1014 29.94 843 24.89 30.6 87 18 4 39.2
13:20 1014 29.94 843 24.89 30.8 87.4 18 4.2 39.6
13:25 1014 29.94 843 24.89 31.1 87.9 15 2.1 35.9
13:30 1014 29.94 843 24.89 30.7 87.3 16 2.3 36.1
13:35 1014 29.94 843 24.89 29.7 85.5 18 3.2 37.7
13:40 1014 29.94 843 24.89 30.5 86.8 15 0.9 33.6
13:45 1014 29.94 843 24.89 30.9 87.6 15 1.4 34.5
13:50 1014 29.94 843 24.89 31.1 87.9 14 1.1 34
13:55 1014 29.94 843 24.89 31.6 88.9 15 2.1 35.7
14:00 1014 29.94 843 24.89 31.3 88.4 15 1.6 35
14:05 1014 29.94 843 24.89 31.3 88.3 15 1.9 35.5
14:10 1014 29.94 843 24.89 31.5 88.7 15 1.9 35.3
14:15 1014 29.94 843 24.89 31.6 88.9 15 2 35.7
14:20 1014 29.94 843 24.89 31.7 89.1 15 2.4 36.3
14:25 1014 29.94 843 24.89 31.9 89.4 16 3.3 38
14:30 1014 29.94 843 24.89 31.9 89.4 15 2 35.6
14:35 1014 29.94 843 24.89 32.3 90.1 14 2.1 35.8
14:40 1013 29.91 843 24.89 32.4 90.4 15 2.7 36.8
14:45 1013 29.91 843 24.89 32.7 90.9 15 2.7 36.8
14:50 1013 29.91 843 24.89 32.6 90.7 13 1.4 34.5
14:55 1013 29.91 842 24.86 32.3 90.1 14 1.8 35.3
15:00 1013 29.91 842 24.86 31.8 89.3 13 0.7 33.3
15:05 1013 29.91 842 24.86 31.7 89 14 1.4 34.5
15:10 1013 29.91 842 24.86 31.7 89.1 15 2.6 36.7
15:15 1013 29.91 842 24.86 31.2 88.1 15 1.5 34.7
15:20 1013 29.91 843 24.89 30.8 87.5 14 1 33.8
15:25 1013 29.91 842 24.86 31.1 88 14 1 33.7
15:30 1013 29.91 842 24.86 32.2 90 14 1.6 34.9
15:35 1013 29.91 842 24.86 32.1 89.8 14 1.2 34.2
15:40 1013 29.91 842 24.86 32.8 91.1 13 1.5 34.7
15:45 1013 29.91 842 24.86 33 91.5 13 1.5 34.7
15:50 1013 29.91 842 24.86 33 91.4 13 1.6 34.9
15:55 1013 29.91 842 24.86 33.1 91.5 14 2.9 37.2
16:00 1013 29.91 842 24.86 32.3 90.1 15 2.5 36.5
16:05 1013 29.91 842 24.86 31.1 87.9 15 1.9 35.4
16:10 1013 29.91 842 24.86 30.6 87 15 0.9 33.6
16:15 1012 29.88 842 24.86 30.8 87.5 14 0.8 33.5
16:20 1012 29.88 842 24.86 31.3 88.3 14 1.4 34.5
16:25 1012 29.88 842 24.86 31.3 88.3 15 2.2 36
16:30 1013 29.91 842 24.86 31 87.7 14 1.1 34.1
16:35 1013 29.91 842 24.86 31 87.8 14 1.1 33.9
16:40 1013 29.91 842 24.86 30.9 87.7 16 2.9 37.3
16:45 1013 29.91 842 24.86 30.9 87.6 15 1.6 34.9
16:50 1013 29.91 842 24.86 30.8 87.4 18 3.8 38.8
16:55 1013 29.91 842 24.86 30.5 86.9 18 3.7 38.7
17:00 1013 29.91 842 24.86 30 86 18 3.1 37.6
17:05 1013 29.91 842 24.86 29.9 85.8 17 2.7 36.9
17:10 1013 29.91 842 24.86 30 86 17 2.4 36.4
17:15 1012 29.88 842 24.86 30 86 18 3.5 38.2
17:20 1012 29.88 842 24.86 30.1 86.1 19 4.3 39.7
17:25 1013 29.91 842 24.86 29.2 84.5 22 5.5 41.9
17:30 1013 29.91 842 24.86 29 84.2 24 7 44.6
17:35 1012 29.88 842 24.86 29.1 84.3 26 8.1 46.5
17:40 1012 29.88 842 24.86 29.4 84.8 24 7.3 45.1
17:45 1012 29.88 842 24.86 29.5 85 25 8 46.3
17:50 1012 29.88 842 24.86 29.8 85.6 22 5.9 42.7
17:55 1012 29.88 842 24.86 29.7 85.4 23 6.4 43.5
18:00 1012 29.88 842 24.86 29.6 85.2 21 5.3 41.5
18:05 1012 29.88 842 24.86 29.7 85.5 21 5.2 41.4
18:10 1012 29.88 842 24.86 29.7 85.5 23 6.8 44.2
18:15 1012 29.88 842 24.86 29.6 85.3 23 6.7 44
18:20 1012 29.88 842 24.86 29.3 84.7 24 7 44.6
18:25 1012 29.88 841 24.83 29.1 84.3 25 7.6 45.6
18:30 1012 29.88 841 24.83 29.2 84.6 25 7.7 45.8
18:35 1012 29.88 841 24.83 29 84.3 24 6.8 44.3
18:40 1012 29.88 841 24.83 29.2 84.6 25 7.5 45.6
18:45 1012 29.88 841 24.83 29.3 84.7 29 9.7 49.4
18:50 1012 29.88 841 24.83 29 84.2 26 8.1 46.6
18:55 1012 29.88 841 24.83 29 84.1 25 7.4 45.4
19:00 1012 29.88 841 24.83 29 84.3 25 7.6 45.6
19:05 1012 29.88 841 24.83 28.7 83.7 27 8 46.3
19:10 1012 29.88 841 24.83 28.5 83.3 26 7.7 45.8
19:15 1012 29.88 841 24.83 28.4 83 30 9.6 49.3
19:20 1012 29.88 841 24.83 28.5 83.3 28 8.7 47.7
19:25 1012 29.88 841 24.83 28.7 83.7 27 8.3 46.9
19:30 1012 29.88 841 24.83 28.9 84 27 8.5 47.3
19:35 1012 29.88 841 24.83 28.6 83.4 29 9.3 48.7
19:40 1012 29.88 841 24.83 27.7 81.9 30 8.9 48
19:45 1012 29.88 841 24.83 27.1 80.9 34 10 50.1
19:50 1012 29.88 841 24.83 26.6 79.8 32 8.8 47.9
19:55 1012 29.88 841 24.83 26.5 79.7 32 8.5 47.4
20:00 1012 29.88 841 24.83 26.7 80 32 8.8 47.9
20:05 1012 29.88 841 24.83 26.9 80.3 25 5.6 42.2
20:10 1012 29.88 841 24.83 27.2 81 29 7.8 46
20:15 1012 29.88 841 24.83 27.1 80.9 30 8.5 47.4
20:20 1012 29.88 841 24.83 26.9 80.4 32 9.2 48.6
20:25 1012 29.88 841 24.83 26.2 79.1 32 8.5 47.3
20:30 1012 29.88 841 24.83 25.8 78.5 33 8.5 47.3
20:35 1012 29.88 841 24.83 25.3 77.5 34 8.4 47.1
20:40 1012 29.88 841 24.83 24.8 76.7 35 8.5 47.4
20:45 1012 29.88 841 24.83 24.6 76.4 35 8.3 47
20:50 1012 29.88 841 24.83 24.7 76.4 34 8.2 46.7
20:55 1012 29.88 841 24.83 24.6 76.4 33 7.5 45.5
21:00 1012 29.88 841 24.83 24.9 76.8 27 4.9 40.8
21:05 1012 29.88 841 24.83 25.5 77.9 27 5.4 41.7
21:10 1012 29.88 841 24.83 25.6 78 29 6.5 43.7
21:15 1012 29.88 841 24.83 25.9 78.7 20 1.3 34.4
21:20 1012 29.88 841 24.83 27 80.5 15 -1.7 29
21:25 1012 29.88 842 24.86 27.4 81.3 17 0.1 32.2
21:30 1013 29.91 842 24.86 27.2 81 20 2.5 36.5
21:35 1013 29.91 842 24.86 26 78.8 26 5.5 41.8
21:40 1013 29.91 842 24.86 25.1 77.1 28 5.4 41.7
21:45 1013 29.91 842 24.86 24.8 76.6 20 0.6 33
21:50 1013 29.91 842 24.86 25.5 77.9 25 4.4 39.8
21:55 1013 29.91 842 24.86 25.1 77.1 26 4.7 40.4
22:00 1013 29.91 842 24.86 24.1 75.4 28 4.9 40.8
22:05 1013 29.91 842 24.86 23.5 74.3 27 3.7 38.7
22:10 1013 29.91 843 24.89 23.5 74.2 29 4.4 40
22:15 1013 29.91 843 24.89 23 73.4 30 4.8 40.6
22:20 1014 29.94 843 24.89 22.8 73 30 4.7 40.5
22:25 1014 29.94 843 24.89 22.6 72.6 31 4.7 40.4
22:30 1014 29.94 843 24.89 22.8 73 29 4.2 39.6
22:35 1014 29.94 843 24.89 22.8 73.1 30 4.6 40.4
22:40 1014 29.94 843 24.89 22.5 72.6 32 5 41
22:45 1014 29.94 843 24.89 22.1 71.8 33 5.4 41.7
22:50 1014 29.94 844 24.92 21.4 70.6 35 5.7 42.2
22:55 1015 29.97 844 24.92 20.9 69.5 39 6.6 43.8
23:00 1015 29.97 844 24.92 20.4 68.7 38 5.7 42.3
23:05 1015 29.97 844 24.92 20.5 68.9 37 5.4 41.7
23:10 1015 29.97 844 24.92 20.5 68.8 39 6.1 43
23:15 1015 29.97 844 24.92 20.4 68.6 37 5.3 41.6
23:20 1015 29.97 844 24.92 20.5 68.9 37 5.6 42.1
23:25 1015 29.97 844 24.92 20.7 69.3 33 4.2 39.6
23:30 1015 29.97 844 24.92 21.4 70.5 33 4.5 40.1
23:35 1015 29.97 844 24.92 21.5 70.6 33 4.6 40.3
23:40 1015 29.97 844 24.92 21.5 70.6 33 4.7 40.4
23:45 1015 29.97 844 24.92 21.5 70.7 33 4.6 40.3
23:50 1015 29.97 845 24.95 21.5 70.7 33 4.7 40.4
23:55 1015 29.97 845 24.95 21.4 70.6 33 4.5 40.1
24:00 1015 29.97 845 24.95 20.9 69.6 37 5.9 42.7